Pagrindinis puslapis
METAR-TAF:

METAR-TAF

Oro uostai :

Kraistčerčas, Naujoji Zelandija

platuma: 43-29S, ilguma: 172-33E, Aukštis: 38 m

Dabartinis oras

Ataskaita buvo paskelbta 32 minutes, ne 21:30 UTC
Vėjas 12 kt iš Šiaurės Rytų
Temperatūra 24°C
Drėgmė 47%
Slėgis 1000 hPa
Matomumas 10 km arba daugiau

METAR: NZCH 202130Z AUTO 04012KT 9999 NCD 24/12 Q1000 NOSIG

Laikas: 11:02 (22:02 UTC)

Prognozė

Ataskaita buvo paskelbta 1 valandą ir 9 minutes, ne 20:53 UTC
Prognozė galioja nuo 20 metu 20 UTC su 21 metu 18 UTC
Vėjas 12 kt iš Šiaurės Rytų
Matomumas 10 km arba daugiau
Mažai debesys ne aukštis 1800 ft
Tapsmas
nuo 21 metu 01 UTC su 21 metu 03 UTC
Vėjas 15 kt iš Šiaurės/Šiaurės Vakarų
Tapsmas
nuo 21 metu 07 UTC su 21 metu 09 UTC
Vėjas 5 kt iš Šiaurės/Šiaurės Vakarų
Nuo 21 metu 1400 UTC
Vėjas 15 kt iš Pietų/Pietvakarių
Matomumas 10 km arba daugiau
Išsisklaidę debesys ne aukštis 1500 ft
Su prošvaistėmis ne aukštis 3000 ft
lietus

TAF: NZCH 202053Z 2020/2118 05012KT 9999 FEW018 BECMG 2101/2103 34015KT BECMG 2107/2109 34005KT FM211400 20015KT 9999 -SHRA SCT015 BKN030

Orai ataskaitas ir orų prognozės (METAR, TAF).

turimą stotys yra geltonos ir raudonos taškus žemėlapyje.

Perkelti pele per norėdami pamatyti stoties vardą.

Tada spustelėkite, norėdami matyti oro stebėjimo ir prognozės.

Norėdami pakeisti žemėlapį: spustelėkite ant žalios mygtukų su juodo kryžiaus žemyn,; žalią mygtuką su brūkšneliu, jei norite nutolinti; arba žalių rodyklių gretimoms žemėlapius.


METAR-TAF: